createdAt,value
2018-12-01T00:01:09.117Z,15.60
2018-12-01T00:03:39.898Z,15.68
2018-12-01T00:06:10.437Z,11.45
2018-12-01T00:08:39.207Z,12.98
2018-12-01T00:11:09.486Z,14.15
2018-12-01T00:13:38.333Z,11.28
2018-12-01T00:16:07.801Z,12.47
2018-12-01T00:18:38.137Z,11.78
2018-12-01T00:21:07.134Z,11.65
2018-12-01T00:23:37.377Z,12.03
2018-12-01T00:26:06.609Z,12.55
2018-12-01T00:28:35.668Z,11.50
2018-12-01T00:31:07.644Z,13.22
2018-12-01T00:33:37.224Z,11.63
2018-12-01T00:36:08.515Z,12.25
2018-12-01T00:38:38.416Z,12.75
2018-12-01T00:41:08.070Z,12.33
2018-12-01T00:43:37.486Z,13.22
2018-12-01T00:46:07.441Z,13.20
2018-12-01T00:48:37.103Z,13.10
2018-12-01T00:51:06.588Z,14.07
2018-12-01T00:53:39.116Z,13.48
2018-12-01T00:56:08.499Z,13.10
2018-12-01T00:58:37.315Z,12.75
2018-12-01T01:01:06.978Z,12.70
2018-12-01T01:03:35.863Z,14.00
2018-12-01T01:06:04.830Z,12.35
2018-12-01T01:08:33.653Z,12.03
2018-12-01T01:11:02.929Z,11.35
2018-12-01T01:13:31.741Z,12.43
2018-12-01T01:16:00.697Z,13.32
2018-12-01T01:18:29.592Z,11.73
2018-12-01T01:20:58.822Z,12.53
2018-12-01T01:23:27.707Z,11.97
2018-12-01T01:25:56.584Z,13.35
2018-12-01T01:28:25.510Z,12.80
2018-12-01T01:30:55.030Z,12.45
2018-12-01T01:33:29.033Z,12.40
2018-12-01T01:35:57.993Z,13.25
2018-12-01T01:38:26.897Z,13.08
2018-12-01T01:41:01.237Z,12.98
2018-12-01T01:43:30.316Z,13.83
2018-12-01T01:45:59.373Z,12.35
2018-12-01T01:48:28.604Z,12.05
2018-12-01T01:50:57.501Z,13.72
2018-12-01T01:53:26.914Z,14.45
2018-12-01T01:55:55.796Z,13.03
2018-12-01T01:58:24.675Z,13.03
2018-12-01T02:00:53.916Z,13.22
2018-12-01T02:03:22.754Z,12.58
2018-12-01T02:05:51.572Z,15.25
2018-12-01T02:08:20.377Z,14.85
2018-12-01T02:10:49.481Z,14.25
2018-12-01T02:13:18.295Z,13.10
2018-12-01T02:15:47.654Z,14.18
2018-12-01T02:18:23.115Z,15.23
2018-12-01T02:20:51.918Z,14.63
2018-12-01T02:23:20.719Z,15.15
2018-12-01T02:25:49.946Z,15.65
2018-12-01T02:28:18.761Z,13.88
2018-12-01T02:30:47.600Z,16.05
2018-12-01T02:33:16.459Z,16.50
2018-12-01T02:35:45.284Z,16.70
2018-12-01T02:38:14.142Z,16.65
2018-12-01T02:40:42.975Z,18.55
2018-12-01T02:43:11.787Z,17.77
2018-12-01T02:45:51.706Z,19.40
2018-12-01T02:48:20.654Z,19.50
2018-12-01T02:50:49.507Z,17.07
2018-12-01T02:53:18.291Z,18.85
2018-12-01T02:55:47.077Z,19.62
2018-12-01T02:58:15.948Z,19.27
2018-12-01T03:00:44.775Z,19.20
2018-12-01T03:03:13.618Z,19.62
2018-12-01T03:05:42.442Z,20.60
2018-12-01T03:08:11.262Z,19.92
2018-12-01T03:10:40.540Z,20.88
2018-12-01T03:13:09.705Z,18.12
2018-12-01T03:15:38.554Z,21.20
2018-12-01T03:18:07.527Z,19.62
2018-12-01T03:20:36.322Z,19.30
2018-12-01T03:23:05.448Z,20.88
2018-12-01T03:25:34.339Z,20.52
2018-12-01T03:28:03.154Z,19.45
2018-12-01T03:30:38.502Z,20.40
2018-12-01T03:33:07.343Z,20.65
2018-12-01T03:35:36.594Z,20.15
2018-12-01T03:38:05.522Z,20.20
2018-12-01T03:40:39.635Z,19.27
2018-12-01T03:43:08.493Z,19.05
2018-12-01T03:45:37.476Z,19.98
2018-12-01T03:48:06.728Z,18.40
2018-12-01T03:50:35.605Z,18.23
2018-12-01T03:53:04.387Z,18.32
2018-12-01T03:55:34.063Z,19.27
2018-12-01T03:58:03.497Z,19.00
2018-12-01T04:00:33.200Z,18.32
2018-12-01T04:03:02.660Z,20.20
2018-12-01T04:05:31.720Z,19.73
2018-12-01T04:08:00.481Z,18.52
2018-12-01T04:10:29.317Z,18.65
2018-12-01T04:12:58.184Z,20.62
2018-12-01T04:15:27.514Z,20.20
2018-12-01T04:17:56.319Z,20.88
2018-12-01T04:20:25.150Z,20.85
2018-12-01T04:22:53.957Z,19.35
2018-12-01T04:25:22.703Z,18.95
2018-12-01T04:27:51.471Z,20.25
2018-12-01T04:30:21.885Z,18.60
2018-12-01T04:32:50.722Z,19.80
2018-12-01T04:35:21.242Z,19.40
2018-12-01T04:37:50.855Z,19.10
2018-12-01T04:40:19.713Z,19.25
2018-12-01T04:42:48.890Z,19.40
2018-12-01T04:45:18.085Z,18.32
2018-12-01T04:47:46.998Z,18.15
2018-12-01T04:50:16.639Z,17.32
2018-12-01T04:52:46.244Z,17.42
2018-12-01T04:55:16.133Z,16.93
2018-12-01T04:57:44.927Z,17.37
2018-12-01T05:00:15.582Z,17.60
2018-12-01T05:02:44.436Z,15.48
2018-12-01T05:05:15.187Z,16.50
2018-12-01T05:07:44.024Z,16.00
2018-12-01T05:10:13.764Z,15.50
2018-12-01T05:12:42.507Z,17.10
2018-12-01T05:15:13.892Z,14.85
2018-12-01T05:17:42.670Z,17.30
2018-12-01T05:20:15.595Z,15.85
2018-12-01T05:22:44.365Z,15.60
2018-12-01T05:25:13.288Z,15.65
2018-12-01T05:27:42.354Z,14.35
2018-12-01T05:30:11.154Z,14.07
2018-12-01T05:32:39.987Z,14.70
2018-12-01T05:35:14.682Z,14.93
2018-12-01T05:37:43.493Z,14.87
2018-12-01T05:40:13.042Z,16.05
2018-12-01T05:42:41.893Z,15.68
2018-12-01T05:45:13.817Z,13.60
2018-12-01T05:47:42.684Z,15.35
2018-12-01T05:50:12.214Z,13.48
2018-12-01T05:52:41.052Z,14.60
2018-12-01T05:55:11.162Z,15.03
2018-12-01T05:57:40.024Z,15.43
2018-12-01T06:00:13.933Z,16.60
2018-12-01T06:02:42.769Z,16.85
2018-12-01T06:05:12.188Z,16.05
2018-12-01T06:07:41.708Z,16.23
2018-12-01T06:10:13.500Z,15.70
2018-12-01T06:12:42.380Z,17.20
2018-12-01T06:15:12.068Z,15.00
2018-12-01T06:17:40.888Z,16.55
2018-12-01T06:20:19.510Z,16.37
2018-12-01T06:22:48.540Z,15.75
2018-12-01T06:25:18.291Z,15.15
2018-12-01T06:27:47.045Z,15.25
2018-12-01T06:30:17.526Z,15.85
2018-12-01T06:32:46.874Z,17.12
2018-12-01T06:35:15.889Z,14.00
2018-12-01T06:37:44.679Z,16.85
2018-12-01T06:40:14.472Z,17.62
2018-12-01T06:42:43.385Z,17.73
2018-12-01T06:45:13.691Z,15.72
2018-12-01T06:47:42.889Z,16.05
2018-12-01T06:50:15.538Z,16.00
2018-12-01T06:52:44.699Z,17.45
2018-12-01T06:55:15.627Z,16.55
2018-12-01T06:57:46.061Z,16.30
2018-12-01T07:00:16.403Z,16.90
2018-12-01T07:02:46.668Z,16.20
2018-12-01T07:05:16.164Z,16.75
2018-12-01T07:07:45.010Z,16.15
2018-12-01T07:10:14.822Z,16.37
2018-12-01T07:13:00.809Z,14.73
2018-12-01T07:15:34.949Z,15.63
2018-12-01T07:18:14.074Z,15.88
2018-12-01T07:20:42.903Z,16.23
2018-12-01T07:23:11.706Z,15.80
2018-12-01T07:25:40.602Z,17.42
2018-12-01T07:28:10.005Z,16.97
2018-12-01T07:30:39.710Z,16.05
2018-12-01T07:33:09.318Z,15.80
2018-12-01T07:35:42.880Z,17.57
2018-12-01T07:38:13.341Z,16.17
2018-12-01T07:40:43.010Z,15.72
2018-12-01T07:43:12.201Z,15.43
2018-12-01T07:45:43.434Z,15.85
2018-12-01T07:48:14.642Z,16.52
2018-12-01T07:50:43.754Z,15.68
2018-12-01T07:53:17.550Z,16.48
2018-12-01T07:55:45.630Z,15.90
2018-12-01T07:58:15.092Z,15.72
2018-12-01T08:00:44.068Z,15.08
2018-12-01T08:03:13.017Z,15.70
2018-12-01T08:05:46.572Z,15.50
2018-12-01T08:08:15.462Z,16.07
2018-12-01T08:10:44.280Z,16.48
2018-12-01T08:13:16.625Z,16.75
2018-12-01T08:15:47.804Z,17.05
2018-12-01T08:18:17.209Z,16.95
2018-12-01T08:20:45.985Z,15.40
2018-12-01T08:23:15.528Z,14.90
2018-12-01T08:25:44.412Z,14.35
2018-12-01T08:28:15.289Z,12.68
2018-12-01T08:30:45.052Z,12.55
2018-12-01T08:33:14.030Z,12.73
2018-12-01T08:35:43.154Z,12.85
2018-12-01T08:38:14.292Z,12.20
2018-12-01T08:40:43.958Z,12.90
2018-12-01T08:43:13.821Z,12.45
2018-12-01T08:45:43.101Z,11.55
2018-12-01T08:48:12.698Z,12.60
2018-12-01T08:50:43.258Z,12.70
2018-12-01T08:53:12.973Z,13.10
2018-12-01T08:55:41.768Z,12.00
2018-12-01T08:58:13.575Z,13.05
2018-12-01T09:00:44.274Z,11.97
2018-12-01T09:03:29.565Z,12.03
2018-12-01T09:05:59.276Z,11.97
2018-12-01T09:08:29.390Z,11.25
2018-12-01T09:11:00.120Z,11.63
2018-12-01T09:13:30.059Z,11.90
2018-12-01T09:15:59.120Z,12.50
2018-12-01T09:18:27.849Z,11.90
2018-12-01T09:20:58.951Z,12.73
2018-12-01T09:23:27.840Z,11.10
2018-12-01T09:25:57.653Z,11.83
2018-12-01T09:28:27.388Z,11.83
2018-12-01T09:30:56.612Z,10.65
2018-12-01T09:33:25.722Z,12.40
2018-12-01T09:35:55.041Z,11.93
2018-12-01T09:38:24.196Z,12.60
2018-12-01T09:40:52.844Z,11.60
2018-12-01T09:43:23.359Z,12.27
2018-12-01T09:45:52.783Z,10.70
2018-12-01T09:48:22.284Z,12.50
2018-12-01T09:50:51.310Z,11.50
2018-12-01T09:53:20.903Z,12.53
2018-12-01T09:55:50.888Z,11.27
2018-12-01T09:58:20.126Z,11.37
2018-12-01T10:00:49.323Z,11.70
2018-12-01T10:03:18.777Z,12.23
2018-12-01T10:05:48.067Z,10.80
2018-12-01T10:08:17.148Z,10.73
2018-12-01T10:10:46.503Z,10.67
2018-12-01T10:13:16.211Z,10.90
2018-12-01T10:15:46.177Z,10.47
2018-12-01T10:18:15.722Z,10.63
2018-12-01T10:20:46.229Z,10.20
2018-12-01T10:23:15.182Z,10.60
2018-12-01T10:25:45.605Z,9.97
2018-12-01T10:28:15.577Z,9.60
2018-12-01T10:30:45.215Z,9.07
2018-12-01T10:33:14.690Z,9.67
2018-12-01T10:35:43.955Z,9.40
2018-12-01T10:38:17.260Z,9.33
2018-12-01T10:40:47.150Z,8.53
2018-12-01T10:43:16.560Z,8.17
2018-12-01T10:45:45.503Z,8.97
2018-12-01T10:48:16.117Z,8.20
2018-12-01T10:50:45.508Z,8.53
2018-12-01T10:53:14.633Z,8.87
2018-12-01T10:55:44.295Z,8.85
2018-12-01T10:58:19.946Z,8.80
2018-12-01T11:00:55.161Z,9.10
2018-12-01T11:03:33.224Z,8.77
2018-12-01T11:06:04.003Z,8.70
2018-12-01T11:08:32.823Z,7.87
2018-12-01T11:11:01.735Z,8.60
2018-12-01T11:13:31.576Z,8.00
2018-12-01T11:16:01.397Z,7.83
2018-12-01T11:18:30.788Z,7.60
2018-12-01T11:21:01.412Z,7.53
2018-12-01T11:23:31.415Z,8.23
2018-12-01T11:26:02.368Z,7.10
2018-12-01T11:28:31.339Z,7.17
2018-12-01T11:31:00.131Z,7.67
2018-12-01T11:33:30.451Z,7.33
2018-12-01T11:35:59.254Z,7.63
2018-12-01T11:38:29.227Z,7.00
2018-12-01T11:40:58.290Z,8.00
2018-12-01T11:43:28.222Z,7.90
2018-12-01T11:45:59.673Z,7.40
2018-12-01T11:48:31.455Z,7.03
2018-12-01T11:51:01.386Z,6.92
2018-12-01T11:53:31.028Z,6.60
2018-12-01T11:56:03.130Z,7.27
2018-12-01T11:58:32.882Z,6.87
2018-12-01T12:01:02.733Z,7.03
2018-12-01T12:03:33.294Z,7.23
2018-12-01T12:06:02.945Z,7.53
2018-12-01T12:08:33.090Z,7.50
2018-12-01T12:11:02.920Z,6.47
2018-12-01T12:13:31.774Z,7.10
2018-12-01T12:16:00.658Z,6.77
2018-12-01T12:18:29.505Z,7.40
2018-12-01T12:20:58.378Z,6.47
2018-12-01T12:23:27.184Z,6.83
2018-12-01T12:25:56.313Z,6.73
2018-12-01T12:28:26.051Z,6.97
2018-12-01T12:30:54.875Z,6.27
2018-12-01T12:33:23.792Z,6.30
2018-12-01T12:35:52.774Z,6.97
2018-12-01T12:38:21.662Z,8.00
2018-12-01T12:40:50.517Z,7.53
2018-12-01T12:43:19.325Z,7.17
2018-12-01T12:45:48.164Z,7.43
2018-12-01T12:48:16.973Z,6.70
2018-12-01T12:50:45.741Z,7.40
2018-12-01T12:53:14.575Z,7.20
2018-12-01T12:55:43.413Z,7.67
2018-12-01T12:58:12.236Z,7.53
2018-12-01T13:00:41.097Z,7.00
2018-12-01T13:03:11.214Z,7.63
2018-12-01T13:05:42.069Z,6.67
2018-12-01T13:08:12.116Z,7.50
2018-12-01T13:10:40.889Z,7.40
2018-12-01T13:13:09.721Z,8.00
2018-12-01T13:15:39.209Z,8.17
2018-12-01T13:18:10.462Z,6.27
2018-12-01T13:20:39.517Z,6.87
2018-12-01T13:23:08.740Z,6.73
2018-12-01T13:25:38.109Z,6.70
2018-12-01T13:28:10.503Z,7.50
2018-12-01T13:30:44.561Z,6.97
2018-12-01T13:33:13.380Z,6.40
2018-12-01T13:35:42.225Z,7.00
2018-12-01T13:38:10.957Z,6.70
2018-12-01T13:40:39.761Z,6.53
2018-12-01T13:43:08.620Z,7.00
2018-12-01T13:45:37.850Z,7.10
2018-12-01T13:48:07.246Z,7.37
2018-12-01T13:50:36.069Z,7.93
2018-12-01T13:53:06.621Z,8.00
2018-12-01T13:55:35.476Z,7.43
2018-12-01T13:58:04.312Z,7.03
2018-12-01T14:00:33.182Z,7.27
2018-12-01T14:03:01.967Z,6.63
2018-12-01T14:05:31.780Z,7.33
2018-12-01T14:08:00.592Z,7.10
2018-12-01T14:10:30.456Z,6.30
2018-12-01T14:13:04.010Z,6.77
2018-12-01T14:15:32.832Z,6.50
2018-12-01T14:18:02.208Z,6.40
2018-12-01T14:20:31.078Z,6.40
2018-12-01T14:22:59.805Z,7.10
2018-12-01T14:25:28.971Z,7.00
2018-12-01T14:28:00.523Z,6.77
2018-12-01T14:30:30.221Z,6.80
2018-12-01T14:32:59.507Z,6.60
2018-12-01T14:35:30.458Z,6.87
2018-12-01T14:38:03.777Z,6.53
2018-12-01T14:40:32.637Z,6.00
2018-12-01T14:43:01.648Z,6.43
2018-12-01T14:45:30.498Z,6.63
2018-12-01T14:47:59.540Z,5.97
2018-12-01T14:50:28.617Z,6.93
2018-12-01T14:52:58.124Z,7.20
2018-12-01T14:55:27.176Z,6.10
2018-12-01T14:57:55.989Z,6.33
2018-12-01T15:00:25.700Z,6.00
2018-12-01T15:02:56.476Z,6.20
2018-12-01T15:05:26.353Z,6.47
2018-12-01T15:07:55.236Z,6.43
2018-12-01T15:10:25.505Z,6.97
2018-12-01T15:12:54.340Z,6.60
2018-12-01T15:15:25.254Z,6.53
2018-12-01T15:17:54.093Z,6.20
2018-12-01T15:20:23.758Z,5.90
2018-12-01T15:22:56.231Z,6.90
2018-12-01T15:25:27.052Z,6.73
2018-12-01T15:27:56.085Z,6.25
2018-12-01T15:30:26.611Z,6.95
2018-12-01T15:32:58.908Z,7.20
2018-12-01T15:35:27.689Z,6.78
2018-12-01T15:37:56.833Z,7.00
2018-12-01T15:40:25.758Z,7.70
2018-12-01T15:42:54.571Z,7.40
2018-12-01T15:45:24.177Z,8.55
2018-12-01T15:47:54.115Z,7.72
2018-12-01T15:50:22.274Z,7.17
2018-12-01T15:52:52.910Z,7.28
2018-12-01T15:55:22.358Z,9.38
2018-12-01T15:57:51.207Z,7.37
2018-12-01T16:00:22.045Z,7.95
2018-12-01T16:02:50.909Z,8.40
2018-12-01T16:05:20.629Z,7.75
2018-12-01T16:07:50.648Z,7.95
2018-12-01T16:10:22.264Z,6.70
2018-12-01T16:12:53.958Z,7.55
2018-12-01T16:15:25.610Z,7.37
2018-12-01T16:17:55.608Z,10.18
2018-12-01T16:20:25.164Z,9.08
2018-12-01T16:22:55.602Z,7.08
2018-12-01T16:25:25.718Z,7.20
2018-12-01T16:27:55.235Z,5.70
2018-12-01T16:30:30.694Z,9.13
2018-12-01T16:33:01.139Z,9.00
2018-12-01T16:35:29.921Z,7.50
2018-12-01T16:37:58.824Z,7.45
2018-12-01T16:40:35.202Z,6.65
2018-12-01T16:43:06.325Z,6.55
2018-12-01T16:45:36.512Z,7.15
2018-12-01T16:48:06.103Z,6.67
2018-12-01T16:50:37.959Z,7.20
2018-12-01T16:53:11.514Z,8.00
2018-12-01T16:55:42.117Z,8.20
2018-12-01T16:58:13.926Z,9.13
2018-12-01T17:00:46.213Z,8.95
2018-12-01T17:03:17.096Z,9.78
2018-12-01T17:05:48.742Z,9.30
2018-12-01T17:08:17.494Z,10.18
2018-12-01T17:10:46.882Z,10.35
2018-12-01T17:13:15.893Z,10.70
2018-12-01T17:15:45.433Z,9.83
2018-12-01T17:18:15.635Z,10.25
2018-12-01T17:20:53.764Z,10.63
2018-12-01T17:23:22.493Z,8.88
2018-12-01T17:25:51.721Z,9.78
2018-12-01T17:28:20.763Z,10.45
2018-12-01T17:30:50.116Z,9.70
2018-12-01T17:33:18.968Z,9.48
2018-12-01T17:35:49.201Z,10.88
2018-12-01T17:38:19.502Z,9.35
2018-12-01T17:40:55.508Z,9.28
2018-12-01T17:43:44.393Z,8.55
2018-12-01T17:46:13.420Z,7.28
2018-12-01T17:48:42.344Z,9.33
2018-12-01T17:51:11.412Z,10.43
2018-12-01T17:53:40.366Z,10.10
2018-12-01T17:56:09.192Z,9.88
2018-12-01T17:58:38.138Z,10.45
2018-12-01T18:01:07.315Z,11.15
2018-12-01T18:03:36.286Z,11.08
2018-12-01T18:06:08.226Z,10.50
2018-12-01T18:08:37.223Z,9.43
2018-12-01T18:11:06.671Z,10.45
2018-12-01T18:13:35.909Z,11.35
2018-12-01T18:16:04.877Z,10.85
2018-12-01T18:18:33.616Z,10.10
2018-12-01T18:21:02.338Z,10.10
2018-12-01T18:23:31.095Z,10.55
2018-12-01T18:25:59.833Z,10.60
2018-12-01T18:28:33.461Z,8.93
2018-12-01T18:31:03.620Z,10.30
2018-12-01T18:33:35.373Z,10.93
2018-12-01T18:36:04.187Z,10.45
2018-12-01T18:38:33.007Z,10.48
2018-12-01T18:41:01.897Z,10.95
2018-12-01T18:43:30.649Z,11.45
2018-12-01T18:46:01.215Z,10.50
2018-12-01T18:48:29.960Z,10.63
2018-12-01T18:50:58.739Z,12.00
2018-12-01T18:53:27.473Z,12.37
2018-12-01T18:56:03.987Z,13.20
2018-12-01T18:58:32.722Z,10.90
2018-12-01T19:01:01.832Z,10.10
2018-12-01T19:03:33.521Z,10.55
2018-12-01T19:06:02.281Z,10.60
2018-12-01T19:08:31.382Z,10.78
2018-12-01T19:11:00.490Z,10.93
2018-12-01T19:13:29.235Z,10.43
2018-12-01T19:15:57.864Z,10.45
2018-12-01T19:18:26.947Z,9.73
2018-12-01T19:20:55.966Z,10.48
2018-12-01T19:23:25.215Z,9.38
2018-12-01T19:25:59.726Z,11.60
2018-12-01T19:28:28.536Z,11.43
2018-12-01T19:30:59.317Z,10.05
2018-12-01T19:33:28.099Z,11.03
2018-12-01T19:35:57.581Z,10.48
2018-12-01T19:38:29.523Z,11.20
2018-12-01T19:40:59.870Z,10.72
2018-12-01T19:43:29.151Z,10.60
2018-12-01T19:45:57.936Z,11.00
2018-12-01T19:48:26.698Z,11.12
2018-12-01T19:50:55.715Z,11.90
2018-12-01T19:53:24.595Z,10.00
2018-12-01T19:55:54.169Z,12.20
2018-12-01T19:58:26.428Z,9.53
2018-12-01T20:00:56.442Z,10.30
2018-12-01T20:03:27.251Z,10.80
2018-12-01T20:05:56.154Z,12.25
2018-12-01T20:11:15.406Z,10.50
2018-12-01T20:13:45.640Z,11.40
2018-12-01T20:16:27.435Z,13.00
2018-12-01T20:18:56.623Z,12.53
2018-12-01T20:21:25.439Z,13.08
2018-12-01T20:23:54.688Z,10.82
2018-12-01T20:26:24.330Z,11.45
2018-12-01T20:28:53.162Z,12.20
2018-12-01T20:31:22.592Z,11.15
2018-12-01T20:33:53.325Z,11.05
2018-12-01T20:36:26.672Z,12.85
2018-12-01T20:39:02.528Z,12.53
2018-12-01T20:41:31.290Z,11.78
2018-12-01T20:44:00.090Z,11.93
2018-12-01T20:46:29.093Z,12.30
2018-12-01T20:48:59.737Z,11.08
2018-12-01T20:51:29.785Z,12.43
2018-12-01T20:53:59.842Z,12.70
2018-12-01T20:56:32.282Z,12.90
2018-12-01T20:59:01.406Z,11.18
2018-12-01T21:01:30.354Z,12.15
2018-12-01T21:03:59.246Z,13.53
2018-12-01T21:06:28.395Z,12.70
2018-12-01T21:08:57.121Z,13.22
2018-12-01T21:11:26.298Z,11.78
2018-12-01T21:13:55.211Z,12.00
2018-12-01T21:16:24.617Z,12.15
2018-12-01T21:18:53.444Z,11.63
2018-12-01T21:21:22.946Z,11.60
2018-12-01T21:23:52.689Z,11.80
2018-12-01T21:26:22.546Z,11.63
2018-12-01T21:28:51.391Z,12.35
2018-12-01T21:31:20.146Z,12.93
2018-12-01T21:33:51.954Z,12.05
2018-12-01T21:36:20.922Z,13.30
2018-12-01T21:38:50.037Z,12.85
2018-12-01T21:41:18.783Z,13.00
2018-12-01T21:43:48.299Z,11.80
2018-12-01T21:46:17.979Z,13.38
2018-12-01T21:48:46.794Z,12.78
2018-12-01T21:51:15.660Z,13.18
2018-12-01T21:53:45.075Z,12.47
2018-12-01T21:56:14.439Z,13.65
2018-12-01T21:58:43.868Z,12.90
2018-12-01T22:01:13.402Z,12.33
2018-12-01T22:03:42.251Z,12.75
2018-12-01T22:06:12.154Z,12.50
2018-12-01T22:08:41.478Z,13.43
2018-12-01T22:11:10.555Z,12.98
2018-12-01T22:13:39.434Z,14.00
2018-12-01T22:16:09.406Z,13.75
2018-12-01T22:18:38.518Z,13.28
2018-12-01T22:21:07.755Z,15.58
2018-12-01T22:23:36.610Z,13.20
2018-12-01T22:26:06.791Z,12.82
2018-12-01T22:28:36.488Z,12.33
2018-12-01T22:31:05.498Z,13.08
2018-12-01T22:33:34.510Z,12.63
2018-12-01T22:36:03.206Z,12.60
2018-12-01T22:38:38.723Z,12.28
2018-12-01T22:41:07.577Z,12.40
2018-12-01T22:43:36.606Z,11.12
2018-12-01T22:46:05.433Z,12.35
2018-12-01T22:48:34.381Z,11.57
2018-12-01T22:51:03.112Z,12.13
2018-12-01T22:53:32.194Z,11.43
2018-12-01T22:56:01.165Z,11.95
2018-12-01T22:58:29.882Z,11.85
2018-12-01T23:00:59.490Z,12.47
2018-12-01T23:03:29.427Z,10.88
2018-12-01T23:05:58.255Z,12.13
2018-12-01T23:08:27.986Z,10.40
2018-12-01T23:10:56.750Z,12.13
2018-12-01T23:13:25.534Z,9.85
2018-12-01T23:15:54.278Z,9.98
2018-12-01T23:18:24.088Z,9.78
2018-12-01T23:20:52.850Z,10.25
2018-12-01T23:23:22.003Z,11.00
2018-12-01T23:25:51.183Z,10.10
2018-12-01T23:28:20.349Z,10.20
2018-12-01T23:30:51.840Z,10.55
2018-12-01T23:33:23.203Z,9.05
2018-12-01T23:35:51.980Z,10.05
2018-12-01T23:38:20.695Z,10.60
2018-12-01T23:40:49.511Z,10.75
2018-12-01T23:43:18.314Z,10.40
2018-12-01T23:45:47.248Z,11.15
2018-12-01T23:48:17.088Z,10.20
2018-12-01T23:50:47.998Z,11.53
2018-12-01T23:53:17.700Z,10.30
2018-12-01T23:55:46.467Z,10.23
2018-12-01T23:58:15.685Z,10.15
